createdAt,value
2022-12-09T00:00:14.283Z,1.90
2022-12-09T00:02:41.650Z,1.90
2022-12-09T00:05:09.376Z,1.90
2022-12-09T00:07:37.140Z,1.90
2022-12-09T00:10:06.168Z,1.90
2022-12-09T00:12:33.763Z,1.90
2022-12-09T00:15:00.993Z,1.90
2022-12-09T00:17:28.224Z,1.90
2022-12-09T00:19:55.592Z,1.90
2022-12-09T00:22:22.914Z,1.90
2022-12-09T00:24:50.332Z,1.90
2022-12-09T00:27:17.453Z,1.90
2022-12-09T00:29:45.050Z,1.80
2022-12-09T00:32:12.711Z,1.80
2022-12-09T00:34:40.076Z,1.80
2022-12-09T00:37:07.516Z,1.80
2022-12-09T00:39:34.589Z,1.90
2022-12-09T00:42:02.098Z,1.80
2022-12-09T00:44:29.616Z,1.80
2022-12-09T00:46:57.112Z,1.80
2022-12-09T00:49:24.296Z,1.80
2022-12-09T00:51:51.595Z,1.80
2022-12-09T00:54:18.747Z,1.80
2022-12-09T00:56:46.263Z,1.80
2022-12-09T00:59:13.483Z,1.80
2022-12-09T01:01:40.860Z,1.80
2022-12-09T01:04:10.905Z,1.80
2022-12-09T01:06:38.066Z,1.80
2022-12-09T01:09:05.407Z,1.80
2022-12-09T01:11:32.768Z,1.80
2022-12-09T01:14:02.456Z,1.70
2022-12-09T01:16:33.773Z,1.70
2022-12-09T01:19:04.416Z,1.70
2022-12-09T01:21:32.595Z,1.70
2022-12-09T01:24:00.198Z,1.70
2022-12-09T01:26:28.073Z,1.70
2022-12-09T01:28:57.591Z,1.70
2022-12-09T01:31:25.827Z,1.70
2022-12-09T01:33:55.378Z,1.70
2022-12-09T01:36:26.172Z,1.70
2022-12-09T01:38:54.144Z,1.70
2022-12-09T01:41:22.706Z,1.70
2022-12-09T01:44:20.931Z,1.70
2022-12-09T01:46:49.388Z,1.70
2022-12-09T01:49:22.438Z,1.70
2022-12-09T01:51:59.811Z,1.60
2022-12-09T01:54:27.336Z,1.60
2022-12-09T01:56:55.277Z,1.50
2022-12-09T01:59:24.926Z,1.50
2022-12-09T02:01:56.898Z,1.40
2022-12-09T02:04:24.806Z,1.40
2022-12-09T02:06:52.556Z,1.40
2022-12-09T02:09:20.050Z,1.40
2022-12-09T02:12:21.638Z,1.40
2022-12-09T02:14:59.649Z,1.30
2022-12-09T02:17:55.824Z,1.30
2022-12-09T02:20:38.916Z,1.30
2022-12-09T02:23:12.335Z,1.20
2022-12-09T02:25:53.379Z,1.20
2022-12-09T02:28:40.406Z,1.20
2022-12-09T02:31:27.340Z,1.20
2022-12-09T02:33:57.633Z,1.20
2022-12-09T02:36:28.488Z,1.20
2022-12-09T02:38:57.839Z,1.20
2022-12-09T02:41:29.412Z,1.20
2022-12-09T02:44:05.026Z,1.20
2022-12-09T02:46:34.881Z,1.20
2022-12-09T02:49:02.691Z,1.20
2022-12-09T02:51:34.090Z,1.20
2022-12-09T02:54:12.521Z,1.20
2022-12-09T02:56:44.015Z,1.20
2022-12-09T02:59:11.328Z,1.20
2022-12-09T03:01:45.529Z,1.10
2022-12-09T03:04:22.664Z,1.10
2022-12-09T03:06:55.084Z,1.10
2022-12-09T03:09:34.329Z,1.10
2022-12-09T03:12:07.723Z,1.10
2022-12-09T03:14:50.264Z,1.10
2022-12-09T03:17:25.843Z,1.20
2022-12-09T03:20:00.921Z,1.10
2022-12-09T03:22:31.395Z,1.20
2022-12-09T03:25:15.184Z,1.30
2022-12-09T03:28:02.312Z,1.20
2022-12-09T03:30:34.013Z,1.20
2022-12-09T03:33:03.119Z,1.20
2022-12-09T03:35:37.765Z,1.20
2022-12-09T03:38:10.895Z,1.20
2022-12-09T03:40:40.282Z,1.20
2022-12-09T03:43:16.469Z,1.20
2022-12-09T03:45:44.216Z,1.20
2022-12-09T03:48:12.250Z,1.20
2022-12-09T03:50:55.515Z,1.10
2022-12-09T03:53:31.796Z,1.10
2022-12-09T03:56:07.059Z,1.10
2022-12-09T03:58:37.036Z,1.10
2022-12-09T04:01:06.010Z,1.10
2022-12-09T04:03:34.675Z,1.10
2022-12-09T04:06:02.253Z,1.10
2022-12-09T04:08:29.874Z,1.10
2022-12-09T04:10:57.402Z,1.20
2022-12-09T04:13:24.477Z,1.20
2022-12-09T04:15:51.728Z,1.20
2022-12-09T04:18:19.110Z,1.20
2022-12-09T04:20:46.557Z,1.20
2022-12-09T04:23:13.994Z,1.20
2022-12-09T04:25:41.614Z,1.20
2022-12-09T04:28:09.071Z,1.30
2022-12-09T04:30:36.250Z,1.30
2022-12-09T04:33:03.897Z,1.30
2022-12-09T04:35:31.245Z,1.30
2022-12-09T04:37:58.552Z,1.40
2022-12-09T04:40:25.942Z,1.30
2022-12-09T04:42:53.536Z,1.40
2022-12-09T04:45:20.745Z,1.40
2022-12-09T04:47:47.840Z,1.40
2022-12-09T04:50:15.365Z,1.40
2022-12-09T04:52:43.012Z,1.40
2022-12-09T04:55:13.206Z,1.40
2022-12-09T04:57:43.182Z,1.40
2022-12-09T05:00:11.576Z,1.30
2022-12-09T05:02:39.676Z,1.40
2022-12-09T05:05:07.642Z,1.40
2022-12-09T05:07:35.095Z,1.40
2022-12-09T05:10:02.472Z,1.50
2022-12-09T05:12:30.245Z,1.50
2022-12-09T05:14:59.012Z,1.50
2022-12-09T05:17:26.980Z,1.50
2022-12-09T05:19:54.324Z,1.50
2022-12-09T05:22:22.276Z,1.50
2022-12-09T05:24:49.775Z,1.60
2022-12-09T05:27:16.911Z,1.60
2022-12-09T05:29:44.826Z,1.60
2022-12-09T05:32:12.499Z,1.60
2022-12-09T05:34:40.303Z,1.60
2022-12-09T05:37:07.686Z,1.60
2022-12-09T05:39:35.103Z,1.60
2022-12-09T05:42:02.441Z,1.60
2022-12-09T05:44:31.192Z,1.60
2022-12-09T05:46:58.899Z,1.60
2022-12-09T05:49:26.972Z,1.60
2022-12-09T05:51:54.346Z,1.60
2022-12-09T05:54:21.627Z,1.60
2022-12-09T05:56:49.134Z,1.60
2022-12-09T05:59:18.975Z,1.50
2022-12-09T06:01:46.384Z,1.40
2022-12-09T06:04:13.997Z,1.50
2022-12-09T06:06:41.745Z,1.50
2022-12-09T06:09:12.376Z,1.50
2022-12-09T06:11:41.198Z,1.50
2022-12-09T06:14:10.149Z,1.50
2022-12-09T06:16:38.840Z,1.50
2022-12-09T06:19:06.848Z,1.50
2022-12-09T06:21:34.229Z,1.60
2022-12-09T06:24:01.374Z,1.60
2022-12-09T06:26:30.671Z,1.60
2022-12-09T06:28:59.805Z,1.60
2022-12-09T06:31:28.657Z,1.60
2022-12-09T06:33:58.390Z,1.70
2022-12-09T06:36:28.045Z,1.70
2022-12-09T06:38:57.696Z,1.70
2022-12-09T06:41:25.553Z,1.70
2022-12-09T06:43:53.885Z,1.70
2022-12-09T06:46:24.795Z,1.70
2022-12-09T06:48:53.339Z,1.70
2022-12-09T06:51:21.661Z,1.70
2022-12-09T06:53:49.425Z,1.70
2022-12-09T06:56:17.780Z,1.80
2022-12-09T06:58:46.774Z,1.80
2022-12-09T07:01:17.572Z,1.80
2022-12-09T07:03:50.253Z,1.80
2022-12-09T07:06:41.696Z,1.80
2022-12-09T07:09:17.855Z,1.70
2022-12-09T07:11:47.401Z,1.70
2022-12-09T07:14:16.906Z,1.70
2022-12-09T07:16:44.855Z,1.70
2022-12-09T07:19:18.410Z,1.70
2022-12-09T07:21:46.974Z,1.70
2022-12-09T07:24:14.129Z,1.70
2022-12-09T07:26:41.445Z,1.70
2022-12-09T07:29:09.274Z,1.70
2022-12-09T07:31:37.002Z,1.70
2022-12-09T07:34:05.745Z,1.70
2022-12-09T07:36:35.788Z,1.80
2022-12-09T07:39:06.361Z,1.70
2022-12-09T07:41:34.104Z,1.70
2022-12-09T07:44:01.947Z,1.70
2022-12-09T07:46:29.761Z,1.70
2022-12-09T07:48:58.595Z,1.70
2022-12-09T07:51:26.809Z,1.70
2022-12-09T07:53:54.884Z,1.70
2022-12-09T07:56:23.450Z,1.70
2022-12-09T07:58:54.814Z,1.70
2022-12-09T08:01:25.493Z,1.70
2022-12-09T08:03:53.436Z,1.70
2022-12-09T08:06:23.627Z,1.70
2022-12-09T08:08:51.964Z,1.70
2022-12-09T08:11:21.569Z,1.70
2022-12-09T08:13:50.301Z,1.70
2022-12-09T08:16:21.882Z,1.70
2022-12-09T08:18:51.421Z,1.60
2022-12-09T08:21:21.916Z,1.60
2022-12-09T08:23:50.119Z,1.70
2022-12-09T08:26:20.661Z,1.70
2022-12-09T08:28:48.722Z,1.70
2022-12-09T08:31:19.694Z,1.70
2022-12-09T08:33:47.534Z,1.70
2022-12-09T08:36:24.062Z,1.70
2022-12-09T08:38:52.331Z,1.70
2022-12-09T08:41:36.903Z,1.70
2022-12-09T08:44:06.436Z,1.80
2022-12-09T08:46:35.621Z,1.70
2022-12-09T08:49:03.628Z,1.80
2022-12-09T08:51:31.830Z,1.70
2022-12-09T08:54:00.430Z,1.70
2022-12-09T08:56:29.147Z,1.70
2022-12-09T08:58:57.149Z,1.80
2022-12-09T09:01:32.921Z,1.70
2022-12-09T09:04:09.976Z,1.70
2022-12-09T09:06:39.683Z,1.80
2022-12-09T09:09:09.060Z,1.80
2022-12-09T09:11:37.374Z,1.80
2022-12-09T09:14:06.875Z,1.80
2022-12-09T09:16:35.547Z,1.80
2022-12-09T09:19:06.850Z,1.80
2022-12-09T09:21:35.726Z,1.80
2022-12-09T09:24:08.611Z,1.80
2022-12-09T09:26:36.250Z,1.90
2022-12-09T09:29:04.115Z,1.90
2022-12-09T09:31:31.198Z,1.90
2022-12-09T09:33:58.823Z,1.80
2022-12-09T09:36:26.434Z,1.80
2022-12-09T09:38:56.704Z,1.80
2022-12-09T09:41:36.496Z,1.80
2022-12-09T09:44:05.296Z,1.80
2022-12-09T09:46:42.594Z,1.90
2022-12-09T09:49:19.800Z,1.90
2022-12-09T09:51:48.433Z,1.90
2022-12-09T09:54:16.053Z,1.90
2022-12-09T09:56:55.132Z,1.90
2022-12-09T09:59:49.105Z,1.90
2022-12-09T10:02:56.948Z,1.90
2022-12-09T10:05:34.839Z,1.90
2022-12-09T10:08:05.499Z,1.90
2022-12-09T10:11:10.894Z,1.90
2022-12-09T10:13:54.965Z,2.00
2022-12-09T10:16:40.611Z,2.00
2022-12-09T10:19:26.794Z,2.00
2022-12-09T10:21:58.120Z,2.00
2022-12-09T10:24:39.167Z,2.00
2022-12-09T10:27:44.677Z,2.00
2022-12-09T10:30:18.880Z,2.10
2022-12-09T10:32:46.879Z,2.10
2022-12-09T10:35:27.071Z,2.10
2022-12-09T10:37:56.494Z,2.20
2022-12-09T10:40:44.479Z,2.20
2022-12-09T10:43:47.332Z,2.20
2022-12-09T10:46:24.355Z,2.20
2022-12-09T10:48:59.206Z,2.20
2022-12-09T10:51:31.106Z,2.30
2022-12-09T10:54:10.604Z,2.30
2022-12-09T10:56:40.681Z,2.30
2022-12-09T10:59:24.949Z,2.30
2022-12-09T11:01:58.553Z,2.30
2022-12-09T11:04:40.740Z,2.30
2022-12-09T11:07:08.651Z,2.30
2022-12-09T11:09:38.722Z,2.30
2022-12-09T11:12:15.924Z,2.30
2022-12-09T11:15:03.095Z,2.30
2022-12-09T11:17:33.212Z,2.30
2022-12-09T11:20:07.577Z,2.30
2022-12-09T11:22:40.919Z,2.30
2022-12-09T11:25:30.355Z,2.30
2022-12-09T11:28:01.969Z,2.30
2022-12-09T11:30:40.672Z,2.30
2022-12-09T11:33:14.529Z,2.20
2022-12-09T11:35:45.683Z,2.20
2022-12-09T11:38:31.526Z,2.20
2022-12-09T11:41:04.265Z,2.10
2022-12-09T11:43:46.429Z,2.10
2022-12-09T11:46:13.736Z,2.10
2022-12-09T11:48:47.857Z,2.10
2022-12-09T11:51:23.961Z,2.20
2022-12-09T11:53:57.631Z,2.20
2022-12-09T11:56:29.823Z,2.20
2022-12-09T11:59:09.565Z,2.00
2022-12-09T12:01:46.455Z,2.00
2022-12-09T12:04:36.576Z,2.00
2022-12-09T12:07:06.975Z,2.00
2022-12-09T12:09:53.615Z,1.90
2022-12-09T12:13:00.490Z,1.90
2022-12-09T12:15:51.419Z,1.90
2022-12-09T12:18:23.582Z,2.00
2022-12-09T12:21:18.880Z,2.00
2022-12-09T12:24:00.656Z,1.90
2022-12-09T12:26:54.275Z,1.90
2022-12-09T12:29:39.860Z,1.90
2022-12-09T12:32:13.073Z,2.00
2022-12-09T12:35:01.078Z,1.90
2022-12-09T12:38:03.503Z,2.00
2022-12-09T12:40:54.830Z,2.00
2022-12-09T12:44:13.725Z,2.10
2022-12-09T12:46:42.602Z,2.10
2022-12-09T12:49:45.939Z,2.10
2022-12-09T12:52:47.472Z,2.20
2022-12-09T12:55:27.615Z,2.20
2022-12-09T12:58:10.382Z,2.20
2022-12-09T13:01:06.034Z,2.30
2022-12-09T13:03:57.991Z,2.30
2022-12-09T13:06:38.345Z,2.30
2022-12-09T13:09:12.864Z,2.40
2022-12-09T13:12:10.534Z,2.40
2022-12-09T13:14:52.112Z,2.40
2022-12-09T13:17:27.373Z,2.40
2022-12-09T13:19:59.188Z,2.30
2022-12-09T13:22:44.706Z,2.30
2022-12-09T13:25:17.514Z,2.30
2022-12-09T13:28:08.526Z,2.20
2022-12-09T13:30:49.669Z,2.30
2022-12-09T13:33:28.935Z,2.30
2022-12-09T13:36:17.679Z,2.30
2022-12-09T13:38:45.878Z,2.30
2022-12-09T13:42:01.894Z,2.30
2022-12-09T13:44:35.650Z,2.30
2022-12-09T13:47:24.749Z,2.40
2022-12-09T13:49:58.860Z,2.30
2022-12-09T13:52:50.754Z,2.30
2022-12-09T13:55:50.092Z,2.30
2022-12-09T13:58:29.461Z,2.30
2022-12-09T14:01:18.074Z,2.30
2022-12-09T14:04:13.051Z,2.30
2022-12-09T14:06:54.937Z,2.30
2022-12-09T14:09:35.809Z,2.30
2022-12-09T14:12:06.690Z,2.30
2022-12-09T14:14:33.715Z,2.30
2022-12-09T14:17:03.280Z,2.30
2022-12-09T14:19:48.904Z,2.30
2022-12-09T14:22:21.932Z,2.20
2022-12-09T14:24:59.401Z,2.10
2022-12-09T14:27:32.133Z,2.20
2022-12-09T14:30:18.735Z,2.20
2022-12-09T14:32:54.701Z,2.20
2022-12-09T14:35:26.294Z,2.20
2022-12-09T14:38:23.457Z,2.10
2022-12-09T14:41:11.537Z,2.10
2022-12-09T14:44:12.479Z,2.10
2022-12-09T14:46:42.165Z,2.10
2022-12-09T14:49:12.091Z,2.10
2022-12-09T14:51:52.488Z,2.20
2022-12-09T14:54:24.753Z,2.20
2022-12-09T14:56:58.795Z,2.20
2022-12-09T14:59:28.696Z,2.20
2022-12-09T15:01:58.886Z,2.20
2022-12-09T15:04:43.358Z,2.20
2022-12-09T15:07:25.215Z,2.30
2022-12-09T15:09:59.635Z,2.30
2022-12-09T15:12:35.343Z,2.30
2022-12-09T15:15:20.137Z,2.30
2022-12-09T15:17:49.586Z,2.30
2022-12-09T15:20:24.571Z,2.30
2022-12-09T15:22:54.492Z,2.30
2022-12-09T15:25:23.257Z,2.30
2022-12-09T15:28:26.060Z,2.20
2022-12-09T15:31:02.567Z,2.20
2022-12-09T15:33:32.840Z,2.20
2022-12-09T15:36:22.100Z,2.20
2022-12-09T15:38:55.077Z,2.20
2022-12-09T15:41:44.165Z,2.30
2022-12-09T15:44:16.532Z,2.30
2022-12-09T15:46:49.540Z,2.30
2022-12-09T15:49:22.402Z,2.30
2022-12-09T15:51:53.285Z,2.30
2022-12-09T15:54:29.251Z,2.30
2022-12-09T15:57:02.302Z,2.30
2022-12-09T15:59:36.956Z,2.10
2022-12-09T16:02:04.879Z,2.10
2022-12-09T16:04:44.948Z,2.10
2022-12-09T16:07:14.084Z,2.10
2022-12-09T16:09:41.572Z,2.20
2022-12-09T16:12:26.294Z,2.10
2022-12-09T16:14:53.481Z,2.10
2022-12-09T16:17:30.027Z,2.10
2022-12-09T16:19:57.846Z,2.10
2022-12-09T16:22:26.740Z,2.10
2022-12-09T16:25:15.580Z,2.20
2022-12-09T16:27:50.651Z,2.20
2022-12-09T16:30:23.435Z,2.20
2022-12-09T16:32:58.575Z,2.20
2022-12-09T16:35:27.335Z,2.20
2022-12-09T16:38:17.085Z,2.10
2022-12-09T16:40:44.236Z,2.10
2022-12-09T16:43:17.794Z,2.10
2022-12-09T16:45:53.265Z,2.10
2022-12-09T16:48:24.281Z,2.00
2022-12-09T16:50:54.163Z,2.10
2022-12-09T16:53:28.749Z,2.00
2022-12-09T16:56:01.776Z,2.00
2022-12-09T16:58:30.606Z,2.00
2022-12-09T17:00:59.517Z,2.10
2022-12-09T17:03:40.330Z,2.00
2022-12-09T17:06:13.093Z,2.00
2022-12-09T17:08:40.424Z,2.00
2022-12-09T17:11:07.632Z,2.00
2022-12-09T17:13:34.851Z,2.00
2022-12-09T17:16:02.388Z,2.00
2022-12-09T17:18:29.945Z,2.00
2022-12-09T17:21:06.133Z,1.90
2022-12-09T17:23:39.350Z,1.90
2022-12-09T17:26:11.089Z,1.80
2022-12-09T17:28:39.704Z,1.80
2022-12-09T17:31:25.005Z,1.70
2022-12-09T17:33:52.543Z,1.60
2022-12-09T17:36:19.702Z,1.60
2022-12-09T17:38:47.373Z,1.50
2022-12-09T17:41:21.641Z,1.50
2022-12-09T17:43:48.705Z,1.50
2022-12-09T17:46:16.703Z,1.50
2022-12-09T17:48:44.150Z,1.50
2022-12-09T17:51:13.759Z,1.50
2022-12-09T17:53:43.180Z,1.50
2022-12-09T17:56:17.214Z,1.30
2022-12-09T17:58:44.921Z,1.30
2022-12-09T18:01:19.247Z,1.20
2022-12-09T18:03:56.225Z,1.20
2022-12-09T18:06:31.403Z,1.20
2022-12-09T18:08:58.679Z,1.10
2022-12-09T18:11:25.940Z,1.10
2022-12-09T18:13:53.757Z,1.10
2022-12-09T18:16:21.192Z,1.10
2022-12-09T18:18:48.603Z,1.00
2022-12-09T18:21:16.706Z,1.10
2022-12-09T18:23:44.262Z,1.10
2022-12-09T18:26:16.754Z,1.10
2022-12-09T18:28:44.328Z,1.10
2022-12-09T18:31:19.249Z,1.20
2022-12-09T18:33:46.762Z,1.30
2022-12-09T18:36:20.035Z,1.40
2022-12-09T18:38:48.324Z,1.40
2022-12-09T18:41:21.332Z,1.40
2022-12-09T18:43:51.240Z,1.40
2022-12-09T18:46:25.021Z,1.30
2022-12-09T18:49:08.075Z,1.20
2022-12-09T18:51:35.631Z,1.10
2022-12-09T18:54:04.290Z,1.10
2022-12-09T18:56:32.359Z,1.00
2022-12-09T18:59:08.547Z,1.10
2022-12-09T19:01:42.131Z,1.10
2022-12-09T19:04:14.647Z,1.00
2022-12-09T19:06:44.151Z,1.00
2022-12-09T19:09:16.598Z,1.00
2022-12-09T19:11:46.622Z,1.00
2022-12-09T19:14:14.893Z,1.00
2022-12-09T19:16:43.172Z,1.00
2022-12-09T19:19:14.070Z,1.00
2022-12-09T19:21:42.076Z,1.10
2022-12-09T19:24:17.246Z,1.10
2022-12-09T19:26:44.847Z,1.10
2022-12-09T19:29:13.649Z,1.10
2022-12-09T19:31:49.395Z,1.20
2022-12-09T19:34:22.856Z,1.20
2022-12-09T19:36:51.544Z,1.20
2022-12-09T19:39:20.823Z,1.20
2022-12-09T19:41:48.471Z,1.20
2022-12-09T19:44:37.130Z,1.20
2022-12-09T19:47:06.314Z,1.20
2022-12-09T19:49:33.713Z,1.10
2022-12-09T19:52:01.026Z,1.20
2022-12-09T19:54:29.883Z,1.20
2022-12-09T19:56:57.334Z,1.20
2022-12-09T19:59:26.275Z,1.20
2022-12-09T20:01:53.607Z,1.20
2022-12-09T20:07:10.793Z,1.00
2022-12-09T20:09:38.048Z,0.80
2022-12-09T20:12:05.416Z,0.80
2022-12-09T20:14:32.476Z,0.70
2022-12-09T20:16:59.627Z,0.70
2022-12-09T20:19:26.768Z,0.80
2022-12-09T20:21:54.141Z,0.80
2022-12-09T20:24:21.394Z,0.90
2022-12-09T20:26:48.745Z,0.90
2022-12-09T20:29:18.692Z,0.90
2022-12-09T20:31:46.183Z,0.80
2022-12-09T20:34:16.335Z,0.80
2022-12-09T20:36:45.027Z,0.80
2022-12-09T20:39:18.341Z,0.80
2022-12-09T20:41:46.462Z,0.90
2022-12-09T20:44:14.519Z,0.90
2022-12-09T20:46:46.156Z,0.90
2022-12-09T20:49:13.504Z,0.90
2022-12-09T20:51:41.863Z,1.00
2022-12-09T20:54:11.714Z,1.00
2022-12-09T20:56:38.903Z,1.00
2022-12-09T20:59:06.915Z,1.00
2022-12-09T21:01:35.954Z,1.00
2022-12-09T21:04:06.132Z,0.90
2022-12-09T21:06:36.007Z,0.90
2022-12-09T21:09:15.036Z,0.90
2022-12-09T21:11:42.206Z,0.90
2022-12-09T21:14:13.770Z,0.90
2022-12-09T21:16:42.771Z,1.00
2022-12-09T21:19:14.457Z,1.00
2022-12-09T21:21:46.944Z,1.00
2022-12-09T21:24:15.556Z,1.10
2022-12-09T21:26:43.150Z,1.10
2022-12-09T21:29:11.741Z,1.10
2022-12-09T21:31:41.158Z,1.10
2022-12-09T21:34:09.579Z,1.10
2022-12-09T21:36:39.355Z,1.20
2022-12-09T21:39:07.426Z,1.20
2022-12-09T21:41:36.670Z,1.10
2022-12-09T21:44:04.774Z,1.10
2022-12-09T21:46:34.711Z,1.20
2022-12-09T21:49:04.545Z,1.20
2022-12-09T21:51:33.062Z,1.20
2022-12-09T21:54:00.798Z,1.20
2022-12-09T21:56:33.523Z,1.10
2022-12-09T21:59:01.222Z,1.20
2022-12-09T22:01:31.288Z,1.20
2022-12-09T22:04:01.626Z,1.20
2022-12-09T22:06:29.684Z,1.20
2022-12-09T22:08:59.871Z,1.20
2022-12-09T22:11:30.129Z,1.20
2022-12-09T22:13:59.722Z,1.20
2022-12-09T22:16:31.155Z,1.20
2022-12-09T22:19:00.027Z,1.20
2022-12-09T22:21:29.831Z,1.20
2022-12-09T22:24:00.129Z,1.30
2022-12-09T22:26:28.135Z,1.30
2022-12-09T22:28:57.254Z,1.20
2022-12-09T22:31:32.738Z,1.20
2022-12-09T22:34:02.602Z,1.30
2022-12-09T22:36:30.427Z,1.30
2022-12-09T22:38:57.832Z,1.30
2022-12-09T22:41:27.721Z,1.30
2022-12-09T22:43:56.036Z,1.30
2022-12-09T22:46:34.033Z,1.20
2022-12-09T22:49:06.443Z,1.20
2022-12-09T22:51:35.988Z,1.10
2022-12-09T22:54:06.019Z,1.20
2022-12-09T22:56:33.799Z,1.20
2022-12-09T22:59:01.228Z,1.30
2022-12-09T23:01:31.005Z,1.30
2022-12-09T23:03:59.803Z,1.20
2022-12-09T23:06:28.659Z,1.30
2022-12-09T23:08:56.414Z,1.30
2022-12-09T23:11:26.076Z,1.20
2022-12-09T23:13:54.117Z,1.20
2022-12-09T23:16:24.207Z,1.10
2022-12-09T23:18:52.548Z,1.10
2022-12-09T23:21:22.362Z,1.10
2022-12-09T23:23:56.064Z,1.10
2022-12-09T23:26:27.966Z,1.20
2022-12-09T23:28:58.149Z,1.10
2022-12-09T23:31:30.960Z,1.20
2022-12-09T23:34:01.232Z,1.20
2022-12-09T23:36:32.174Z,1.20
2022-12-09T23:39:00.870Z,1.20
2022-12-09T23:41:29.181Z,1.30
2022-12-09T23:43:56.229Z,1.30
2022-12-09T23:46:26.534Z,1.30
2022-12-09T23:48:55.130Z,1.30
2022-12-09T23:51:28.077Z,1.30
2022-12-09T23:53:57.702Z,1.30
2022-12-09T23:56:26.963Z,1.30
2022-12-09T23:59:06.137Z,1.30
